createdAt,value
2023-05-03T00:01:39.284Z,2.68
2023-05-03T00:04:06.243Z,2.86
2023-05-03T00:06:32.918Z,2.71
2023-05-03T00:09:00.632Z,2.76
2023-05-03T00:11:28.493Z,2.88
2023-05-03T00:13:55.088Z,2.74
2023-05-03T00:16:21.775Z,2.87
2023-05-03T00:18:49.309Z,2.93
2023-05-03T00:21:17.007Z,2.79
2023-05-03T00:23:43.597Z,2.83
2023-05-03T00:26:11.261Z,3.04
2023-05-03T00:28:37.865Z,2.89
2023-05-03T00:31:09.547Z,2.83
2023-05-03T00:33:37.331Z,2.94
2023-05-03T00:36:11.252Z,2.81
2023-05-03T00:38:39.362Z,2.81
2023-05-03T00:41:06.968Z,3.02
2023-05-03T00:43:36.321Z,2.90
2023-05-03T00:46:15.890Z,2.92
2023-05-03T00:48:45.312Z,3.03
2023-05-03T00:51:14.880Z,2.88
2023-05-03T00:53:44.773Z,2.97
2023-05-03T00:56:12.173Z,3.02
2023-05-03T00:58:40.631Z,2.85
2023-05-03T01:01:07.868Z,2.95
2023-05-03T01:03:39.729Z,2.97
2023-05-03T01:06:25.278Z,2.92
2023-05-03T01:09:19.540Z,3.10
2023-05-03T01:12:04.223Z,2.89
2023-05-03T01:14:47.610Z,2.82
2023-05-03T01:17:15.659Z,2.96
2023-05-03T01:19:51.452Z,2.83
2023-05-03T01:22:26.466Z,2.83
2023-05-03T01:25:07.722Z,2.97
2023-05-03T01:27:34.531Z,2.80
2023-05-03T01:30:01.366Z,2.88
2023-05-03T01:32:37.722Z,2.90
2023-05-03T01:35:18.113Z,2.69
2023-05-03T01:37:45.099Z,2.78
2023-05-03T01:40:16.996Z,2.81
2023-05-03T01:42:43.987Z,2.67
2023-05-03T01:45:13.240Z,2.77
2023-05-03T01:47:39.853Z,2.71
2023-05-03T01:50:06.558Z,2.54
2023-05-03T01:52:33.714Z,2.64
2023-05-03T01:55:00.416Z,2.53
2023-05-03T01:57:26.999Z,2.40
2023-05-03T01:59:54.585Z,2.60
2023-05-03T02:02:21.201Z,2.46
2023-05-03T02:04:48.440Z,2.41
2023-05-03T02:07:15.101Z,2.55
2023-05-03T02:09:41.744Z,2.45
2023-05-03T02:12:09.455Z,2.34
2023-05-03T02:14:36.066Z,2.48
2023-05-03T02:17:03.321Z,2.36
2023-05-03T02:19:30.174Z,2.23
2023-05-03T02:21:57.102Z,2.31
2023-05-03T02:24:24.873Z,2.41
2023-05-03T02:26:52.569Z,2.22
2023-05-03T02:29:19.158Z,2.11
2023-05-03T02:31:45.821Z,2.32
2023-05-03T02:34:12.620Z,2.17
2023-05-03T02:36:39.454Z,2.12
2023-05-03T02:39:07.358Z,2.23
2023-05-03T02:41:33.995Z,2.05
2023-05-03T02:44:01.082Z,2.01
2023-05-03T02:46:27.794Z,2.18
2023-05-03T02:48:54.513Z,2.02
2023-05-03T02:51:21.243Z,1.96
2023-05-03T02:53:48.228Z,2.15
2023-05-03T02:56:14.823Z,2.04
2023-05-03T02:58:41.436Z,1.93
2023-05-03T03:01:09.249Z,2.06
2023-05-03T03:03:36.530Z,1.99
2023-05-03T03:06:03.719Z,1.85
2023-05-03T03:08:30.413Z,2.02
2023-05-03T03:10:57.033Z,1.98
2023-05-03T03:13:24.046Z,1.93
2023-05-03T03:15:52.028Z,1.98
2023-05-03T03:18:19.740Z,2.03
2023-05-03T03:20:47.684Z,1.92
2023-05-03T03:23:14.658Z,1.95
2023-05-03T03:25:42.148Z,2.16
2023-05-03T03:28:08.817Z,1.96
2023-05-03T03:30:35.442Z,1.92
2023-05-03T03:33:02.140Z,2.11
2023-05-03T03:35:29.117Z,2.01
2023-05-03T03:37:55.799Z,1.92
2023-05-03T03:40:22.452Z,2.10
2023-05-03T03:42:50.266Z,2.05
2023-05-03T03:45:18.228Z,2.00
2023-05-03T03:47:45.983Z,2.18
2023-05-03T03:50:13.919Z,2.13
2023-05-03T03:52:40.701Z,2.03
2023-05-03T03:55:07.673Z,2.20
2023-05-03T03:57:34.316Z,2.13
2023-05-03T04:00:01.312Z,2.00
2023-05-03T04:02:28.286Z,2.10
2023-05-03T04:04:55.655Z,2.17
2023-05-03T04:07:22.316Z,2.02
2023-05-03T04:09:48.994Z,2.09
2023-05-03T04:12:17.280Z,2.26
2023-05-03T04:14:43.929Z,2.13
2023-05-03T04:17:12.060Z,2.29
2023-05-03T04:19:39.990Z,2.42
2023-05-03T04:22:08.259Z,2.29
2023-05-03T04:24:35.868Z,2.33
2023-05-03T04:27:05.822Z,2.44
2023-05-03T04:29:32.452Z,2.28
2023-05-03T04:32:01.261Z,2.35
2023-05-03T04:34:30.272Z,2.56
2023-05-03T04:36:57.102Z,2.53
2023-05-03T04:39:24.154Z,2.58
2023-05-03T04:41:50.746Z,2.74
2023-05-03T04:44:18.948Z,2.64
2023-05-03T04:46:48.751Z,2.67
2023-05-03T04:49:17.846Z,2.85
2023-05-03T04:51:45.675Z,2.75
2023-05-03T04:54:12.276Z,2.82
2023-05-03T04:56:38.900Z,2.95
2023-05-03T04:59:05.682Z,2.88
2023-05-03T05:01:32.872Z,2.99
2023-05-03T05:04:00.598Z,3.11
2023-05-03T05:06:29.084Z,3.05
2023-05-03T05:08:57.383Z,3.18
2023-05-03T05:11:24.145Z,3.23
2023-05-03T05:13:50.813Z,3.19
2023-05-03T05:16:17.797Z,3.28
2023-05-03T05:18:45.673Z,3.38
2023-05-03T05:21:15.583Z,3.28
2023-05-03T05:23:42.318Z,3.40
2023-05-03T05:26:08.930Z,3.46
2023-05-03T05:28:36.114Z,3.42
2023-05-03T05:31:02.728Z,3.51
2023-05-03T05:33:29.385Z,3.62
2023-05-03T05:35:56.151Z,3.58
2023-05-03T05:38:22.789Z,3.70
2023-05-03T05:40:49.501Z,3.77
2023-05-03T05:43:16.124Z,3.66
2023-05-03T05:45:42.728Z,3.82
2023-05-03T05:48:10.768Z,3.79
2023-05-03T05:50:38.779Z,3.76
2023-05-03T05:53:06.722Z,3.98
2023-05-03T05:55:33.329Z,4.01
2023-05-03T05:58:01.062Z,3.97
2023-05-03T06:00:27.674Z,4.18
2023-05-03T06:02:54.488Z,4.18
2023-05-03T06:05:21.643Z,4.18
2023-05-03T06:07:48.928Z,4.37
2023-05-03T06:10:16.051Z,4.32
2023-05-03T06:12:42.689Z,4.33
2023-05-03T06:15:09.780Z,4.58
2023-05-03T06:17:36.560Z,4.51
2023-05-03T06:20:04.885Z,4.57
2023-05-03T06:22:31.878Z,4.69
2023-05-03T06:24:59.787Z,4.69
2023-05-03T06:27:26.463Z,4.78
2023-05-03T06:29:54.399Z,4.99
2023-05-03T06:32:21.904Z,4.92
2023-05-03T06:34:49.853Z,5.09
2023-05-03T06:37:17.418Z,5.18
2023-05-03T06:39:44.057Z,5.08
2023-05-03T06:42:10.865Z,5.26
2023-05-03T06:44:37.462Z,5.30
2023-05-03T06:47:04.266Z,5.33
2023-05-03T06:49:31.614Z,5.46
2023-05-03T06:51:58.301Z,5.39
2023-05-03T06:54:24.936Z,5.36
2023-05-03T06:56:51.567Z,5.53
2023-05-03T06:59:19.649Z,5.46
2023-05-03T07:01:47.100Z,5.58
2023-05-03T07:04:14.720Z,5.66
2023-05-03T07:06:55.344Z,5.62
2023-05-03T07:09:35.446Z,5.77
2023-05-03T07:12:08.755Z,5.74
2023-05-03T07:14:35.703Z,5.79
2023-05-03T07:17:02.506Z,5.88
2023-05-03T07:19:30.173Z,5.83
2023-05-03T07:21:56.874Z,5.95
2023-05-03T07:24:25.787Z,5.90
2023-05-03T07:26:54.798Z,5.83
2023-05-03T07:29:21.643Z,6.12
2023-05-03T07:31:51.412Z,6.12
2023-05-03T07:34:19.486Z,6.10
2023-05-03T07:36:46.121Z,6.34
2023-05-03T07:39:12.724Z,6.30
2023-05-03T07:41:39.526Z,6.36
2023-05-03T07:44:07.261Z,6.35
2023-05-03T07:46:35.233Z,6.32
2023-05-03T07:49:05.370Z,6.54
2023-05-03T07:51:39.001Z,6.48
2023-05-03T07:54:07.563Z,6.58
2023-05-03T07:56:34.311Z,6.58
2023-05-03T07:59:09.317Z,6.57
2023-05-03T08:01:36.760Z,6.79
2023-05-03T08:04:04.867Z,6.66
2023-05-03T08:06:32.844Z,6.80
2023-05-03T08:09:00.874Z,6.96
2023-05-03T08:11:30.216Z,6.84
2023-05-03T08:13:57.081Z,7.03
2023-05-03T08:16:25.272Z,7.05
2023-05-03T08:18:53.328Z,7.02
2023-05-03T08:21:21.416Z,7.19
2023-05-03T08:23:49.816Z,7.00
2023-05-03T08:26:17.364Z,7.07
2023-05-03T08:28:45.186Z,7.18
2023-05-03T08:31:12.125Z,7.24
2023-05-03T08:33:38.756Z,7.33
2023-05-03T08:36:06.043Z,7.35
2023-05-03T08:38:34.160Z,7.59
2023-05-03T08:41:08.787Z,7.77
2023-05-03T08:43:40.477Z,7.85
2023-05-03T08:46:12.393Z,7.87
2023-05-03T08:48:39.498Z,7.83
2023-05-03T08:51:10.104Z,7.98
2023-05-03T08:53:36.996Z,8.03
2023-05-03T08:56:08.647Z,7.97
2023-05-03T08:58:38.148Z,7.95
2023-05-03T09:01:06.545Z,7.85
2023-05-03T09:03:37.691Z,8.11
2023-05-03T09:06:20.499Z,8.18
2023-05-03T09:08:47.182Z,8.29
2023-05-03T09:11:30.979Z,8.41
2023-05-03T09:14:14.010Z,8.34
2023-05-03T09:16:42.660Z,8.50
2023-05-03T09:19:11.810Z,8.14
2023-05-03T09:21:41.217Z,8.04
2023-05-03T09:24:21.599Z,8.07
2023-05-03T09:26:52.359Z,8.14
2023-05-03T09:29:34.395Z,8.33
2023-05-03T09:32:03.148Z,8.40
2023-05-03T09:34:29.922Z,8.62
2023-05-03T09:36:56.640Z,8.81
2023-05-03T09:39:23.503Z,8.69
2023-05-03T09:41:51.861Z,8.66
2023-05-03T09:44:19.932Z,8.38
2023-05-03T09:47:07.343Z,8.34
2023-05-03T09:49:36.942Z,8.27
2023-05-03T09:52:03.919Z,8.54
2023-05-03T09:54:36.107Z,8.68
2023-05-03T09:57:04.902Z,8.64
2023-05-03T09:59:32.890Z,8.69
2023-05-03T10:02:03.250Z,8.46
2023-05-03T10:04:40.824Z,8.65
2023-05-03T10:07:13.330Z,8.85
2023-05-03T10:09:44.410Z,9.12
2023-05-03T10:12:13.260Z,9.28
2023-05-03T10:14:42.644Z,9.31
2023-05-03T10:17:45.627Z,9.50
2023-05-03T10:20:29.159Z,9.17
2023-05-03T10:23:04.882Z,9.02
2023-05-03T10:25:32.926Z,8.91
2023-05-03T10:28:03.820Z,9.09
2023-05-03T10:30:34.974Z,9.12
2023-05-03T10:33:13.843Z,9.06
2023-05-03T10:35:42.230Z,9.00
2023-05-03T10:38:22.130Z,9.21
2023-05-03T10:40:48.986Z,9.42
2023-05-03T10:43:33.902Z,9.44
2023-05-03T10:46:06.007Z,9.23
2023-05-03T10:48:33.824Z,9.28
2023-05-03T10:51:37.461Z,8.94
2023-05-03T10:54:04.399Z,9.24
2023-05-03T10:56:31.040Z,9.25
2023-05-03T10:58:59.876Z,9.21
2023-05-03T11:01:28.037Z,9.25
2023-05-03T11:04:05.275Z,9.30
2023-05-03T11:06:37.254Z,9.46
2023-05-03T11:09:06.770Z,9.38
2023-05-03T11:11:37.069Z,9.61
2023-05-03T11:14:04.043Z,9.47
2023-05-03T11:16:31.354Z,9.39
2023-05-03T11:18:59.914Z,9.58
2023-05-03T11:21:26.646Z,9.51
2023-05-03T11:23:54.670Z,9.65
2023-05-03T11:26:26.336Z,9.70
2023-05-03T11:28:54.120Z,9.74
2023-05-03T11:31:22.381Z,9.85
2023-05-03T11:33:49.838Z,9.70
2023-05-03T11:36:16.476Z,9.84
2023-05-03T11:38:43.134Z,9.69
2023-05-03T11:41:18.188Z,9.33
2023-05-03T11:43:46.989Z,9.24
2023-05-03T11:46:18.242Z,9.09
2023-05-03T11:48:45.851Z,9.35
2023-05-03T11:51:14.909Z,9.52
2023-05-03T11:53:43.962Z,9.52
2023-05-03T11:56:15.502Z,9.49
2023-05-03T11:58:52.755Z,9.03
2023-05-03T12:01:23.810Z,9.19
2023-05-03T12:03:59.646Z,9.24
2023-05-03T12:06:28.879Z,9.56
2023-05-03T12:08:56.676Z,9.66
2023-05-03T12:11:26.907Z,9.29
2023-05-03T12:14:00.320Z,9.48
2023-05-03T12:16:27.980Z,9.42
2023-05-03T12:19:02.349Z,9.54
2023-05-03T12:24:20.404Z,9.52
2023-05-03T12:26:48.912Z,9.47
2023-05-03T12:29:17.954Z,9.02
2023-05-03T12:31:49.149Z,9.12
2023-05-03T12:34:31.752Z,9.40
2023-05-03T12:37:04.643Z,9.39
2023-05-03T12:39:32.986Z,9.48
2023-05-03T12:44:34.999Z,9.87
2023-05-03T12:47:02.929Z,9.77
2023-05-03T12:49:30.089Z,9.91
2023-05-03T12:52:34.518Z,9.86
2023-05-03T12:54:49.643Z,9.65
2023-05-03T12:57:22.902Z,9.78
2023-05-03T12:59:56.799Z,9.77
2023-05-03T13:05:00.015Z,9.77
2023-05-03T13:07:32.197Z,9.60
2023-05-03T13:12:31.026Z,9.42
2023-05-03T13:14:58.055Z,9.44
2023-05-03T13:17:25.076Z,9.48
2023-05-03T13:19:54.541Z,9.45
2023-05-03T13:22:22.227Z,9.43
2023-05-03T13:24:49.449Z,9.16
2023-05-03T13:27:17.733Z,9.29
2023-05-03T13:29:46.161Z,9.50
2023-05-03T13:32:14.406Z,9.58
2023-05-03T13:34:41.017Z,9.69
2023-05-03T13:37:08.756Z,9.32
2023-05-03T13:39:36.739Z,9.62
2023-05-03T13:42:03.507Z,9.81
2023-05-03T13:44:30.243Z,9.59
2023-05-03T13:46:57.194Z,9.66
2023-05-03T13:49:25.158Z,9.72
2023-05-03T13:51:51.764Z,9.60
2023-05-03T13:54:19.733Z,9.60
2023-05-03T13:56:46.389Z,9.38
2023-05-03T13:59:16.379Z,9.58
2023-05-03T14:01:43.542Z,9.63
2023-05-03T14:04:11.598Z,9.81
2023-05-03T14:06:41.243Z,10.11
2023-05-03T14:09:08.931Z,10.06
2023-05-03T14:11:35.798Z,10.22
2023-05-03T14:14:03.264Z,10.30
2023-05-03T14:16:40.856Z,10.02
2023-05-03T14:19:11.844Z,10.03
2023-05-03T14:21:38.806Z,10.13
2023-05-03T14:24:07.762Z,9.71
2023-05-03T14:26:34.444Z,9.91
2023-05-03T14:29:01.559Z,10.18
2023-05-03T14:31:29.809Z,10.37
2023-05-03T14:33:58.226Z,10.56
2023-05-03T14:36:34.744Z,10.70
2023-05-03T14:39:04.685Z,10.39
2023-05-03T14:41:33.321Z,10.35
2023-05-03T14:44:00.213Z,10.68
2023-05-03T14:46:27.040Z,10.56
2023-05-03T14:48:53.694Z,10.84
2023-05-03T14:51:21.682Z,10.83
2023-05-03T14:53:49.703Z,11.07
2023-05-03T14:56:16.332Z,11.18
2023-05-03T14:58:44.256Z,10.64
2023-05-03T15:01:20.473Z,10.34
2023-05-03T15:03:47.754Z,9.75
2023-05-03T15:06:14.587Z,9.70
2023-05-03T15:08:41.369Z,9.90
2023-05-03T15:11:07.988Z,10.21
2023-05-03T15:13:35.309Z,10.18
2023-05-03T15:16:02.252Z,10.31
2023-05-03T15:18:28.944Z,10.33
2023-05-03T15:20:56.343Z,10.36
2023-05-03T15:23:23.229Z,10.58
2023-05-03T15:25:49.833Z,10.43
2023-05-03T15:28:16.693Z,10.52
2023-05-03T15:30:43.296Z,10.57
2023-05-03T15:33:12.101Z,10.40
2023-05-03T15:35:40.362Z,10.53
2023-05-03T15:38:07.874Z,10.26
2023-05-03T15:40:34.559Z,10.21
2023-05-03T15:43:01.759Z,10.28
2023-05-03T15:45:28.524Z,10.49
2023-05-03T15:47:58.496Z,10.78
2023-05-03T15:50:25.254Z,10.69
2023-05-03T15:52:51.879Z,10.57
2023-05-03T15:55:20.740Z,10.42
2023-05-03T15:57:47.382Z,10.32
2023-05-03T16:00:18.176Z,10.62
2023-05-03T16:02:44.824Z,10.46
2023-05-03T16:05:12.087Z,10.32
2023-05-03T16:07:38.838Z,9.95
2023-05-03T16:10:06.523Z,9.91
2023-05-03T16:12:33.386Z,10.29
2023-05-03T16:15:00.161Z,10.08
2023-05-03T16:17:27.043Z,9.98
2023-05-03T16:19:53.762Z,10.32
2023-05-03T16:22:20.392Z,10.05
2023-05-03T16:24:47.321Z,10.00
2023-05-03T16:27:14.102Z,9.98
2023-05-03T16:29:40.859Z,9.89
2023-05-03T16:32:09.946Z,9.98
2023-05-03T16:34:37.987Z,9.92
2023-05-03T16:37:04.807Z,10.02
2023-05-03T16:39:33.484Z,9.96
2023-05-03T16:42:00.114Z,9.89
2023-05-03T16:44:26.886Z,9.97
2023-05-03T16:46:53.579Z,9.62
2023-05-03T16:49:20.469Z,9.34
2023-05-03T16:51:48.571Z,9.51
2023-05-03T16:54:16.831Z,9.28
2023-05-03T16:56:45.780Z,9.24
2023-05-03T16:59:12.429Z,9.43
2023-05-03T17:01:39.286Z,9.04
2023-05-03T17:04:07.992Z,8.99
2023-05-03T17:06:34.706Z,8.92
2023-05-03T17:09:01.493Z,8.81
2023-05-03T17:11:29.576Z,9.08
2023-05-03T17:13:56.454Z,8.87
2023-05-03T17:16:23.492Z,8.78
2023-05-03T17:18:50.355Z,8.87
2023-05-03T17:21:18.737Z,8.65
2023-05-03T17:23:46.221Z,8.83
2023-05-03T17:26:13.216Z,8.53
2023-05-03T17:28:40.621Z,8.48
2023-05-03T17:31:07.590Z,8.51
2023-05-03T17:33:36.425Z,8.20
2023-05-03T17:36:05.041Z,8.30
2023-05-03T17:38:33.554Z,8.09
2023-05-03T17:41:04.965Z,8.09
2023-05-03T17:43:32.092Z,8.10
2023-05-03T17:46:12.607Z,7.82
2023-05-03T17:48:44.629Z,7.94
2023-05-03T17:51:15.616Z,7.68
2023-05-03T17:53:44.257Z,7.59
2023-05-03T17:56:16.036Z,7.56
2023-05-03T17:58:45.330Z,7.22
2023-05-03T18:01:13.400Z,7.34
2023-05-03T18:03:44.164Z,7.13
2023-05-03T18:06:13.295Z,7.04
2023-05-03T18:08:41.444Z,7.10
2023-05-03T18:11:08.600Z,6.83
2023-05-03T18:13:37.885Z,6.80
2023-05-03T18:16:08.311Z,6.72
2023-05-03T18:18:35.200Z,6.56
2023-05-03T18:21:04.032Z,6.70
2023-05-03T18:23:31.831Z,6.55
2023-05-03T18:25:58.466Z,6.27
2023-05-03T18:28:25.422Z,6.46
2023-05-03T18:30:58.120Z,6.21
2023-05-03T18:33:24.818Z,6.02
2023-05-03T18:35:52.772Z,6.14
2023-05-03T18:38:22.654Z,5.87
2023-05-03T18:40:50.052Z,5.65
2023-05-03T18:43:18.565Z,5.80
2023-05-03T18:45:45.279Z,5.45
2023-05-03T18:48:12.094Z,5.08
2023-05-03T18:50:39.416Z,5.24
2023-05-03T18:53:06.633Z,4.74
2023-05-03T18:55:33.409Z,4.49
2023-05-03T18:58:00.675Z,4.66
2023-05-03T19:00:27.475Z,4.27
2023-05-03T19:02:54.147Z,4.05
2023-05-03T19:05:21.573Z,4.23
2023-05-03T19:07:48.863Z,3.70
2023-05-03T19:10:16.587Z,3.60
2023-05-03T19:12:44.646Z,3.68
2023-05-03T19:15:12.206Z,3.35
2023-05-03T19:17:41.885Z,3.47
2023-05-03T19:20:10.435Z,3.57
2023-05-03T19:22:37.303Z,3.22
2023-05-03T19:25:04.972Z,3.29
2023-05-03T19:27:33.155Z,3.41
2023-05-03T19:29:59.895Z,3.03
2023-05-03T19:32:27.870Z,3.13
2023-05-03T19:34:54.533Z,3.11
2023-05-03T19:37:22.300Z,2.83
2023-05-03T19:39:48.900Z,2.98
2023-05-03T19:42:15.920Z,2.67
2023-05-03T19:44:42.631Z,2.38
2023-05-03T19:47:09.248Z,2.61
2023-05-03T19:49:35.806Z,2.27
2023-05-03T19:52:04.600Z,2.33
2023-05-03T19:54:32.935Z,2.40
2023-05-03T19:57:08.688Z,2.14
2023-05-03T19:59:36.697Z,2.08
2023-05-03T20:02:03.459Z,1.88
2023-05-03T20:04:30.614Z,1.79
2023-05-03T20:06:57.868Z,1.96
2023-05-03T20:09:24.480Z,2.00
2023-05-03T20:11:56.462Z,1.80
2023-05-03T20:14:24.189Z,1.95
2023-05-03T20:16:50.828Z,1.93
2023-05-03T20:19:17.746Z,1.69
2023-05-03T20:21:44.793Z,1.68
2023-05-03T20:24:11.746Z,1.73
2023-05-03T20:26:38.633Z,1.42
2023-05-03T20:29:05.665Z,1.47
2023-05-03T20:31:32.874Z,1.54
2023-05-03T20:34:00.458Z,1.48
2023-05-03T20:36:28.044Z,1.51
2023-05-03T20:38:55.587Z,1.61
2023-05-03T20:41:22.896Z,1.42
2023-05-03T20:43:52.491Z,1.47
2023-05-03T20:46:19.248Z,1.46
2023-05-03T20:48:47.141Z,1.24
2023-05-03T20:51:14.819Z,1.26
2023-05-03T20:53:41.530Z,1.12
2023-05-03T20:56:08.442Z,0.75
2023-05-03T20:58:35.270Z,0.64
2023-05-03T21:01:07.836Z,0.91
2023-05-03T21:03:35.567Z,0.79
2023-05-03T21:06:02.896Z,0.61
2023-05-03T21:08:29.884Z,0.68
2023-05-03T21:10:56.489Z,0.71
2023-05-03T21:13:24.489Z,0.49
2023-05-03T21:15:51.212Z,0.67
2023-05-03T21:18:19.199Z,0.65
2023-05-03T21:20:47.034Z,0.56
2023-05-03T21:23:13.749Z,0.79
2023-05-03T21:25:40.440Z,0.77
2023-05-03T21:28:07.099Z,0.50
2023-05-03T21:30:33.801Z,0.29
2023-05-03T21:33:00.429Z,0.34
2023-05-03T21:35:27.207Z,0.49
2023-05-03T21:37:53.909Z,0.13
2023-05-03T21:40:23.158Z,-0.02
2023-05-03T21:42:52.366Z,0.07
2023-05-03T21:45:20.000Z,-0.38
2023-05-03T21:47:46.913Z,-0.60
2023-05-03T21:50:14.068Z,-0.38
2023-05-03T21:52:41.080Z,-0.57
2023-05-03T21:55:08.580Z,-0.64
2023-05-03T21:57:35.242Z,-0.56
2023-05-03T22:00:02.548Z,-0.51
2023-05-03T22:02:29.499Z,-0.85
2023-05-03T22:04:57.158Z,-0.80
2023-05-03T22:07:23.826Z,-0.69
2023-05-03T22:09:50.437Z,-0.73
2023-05-03T22:14:47.397Z,-0.51
2023-05-03T22:17:15.303Z,-1.00
2023-05-03T22:19:42.001Z,-1.15
2023-05-03T22:22:09.009Z,-0.92
2023-05-03T22:24:35.771Z,-1.19
2023-05-03T22:27:02.952Z,-1.14
2023-05-03T22:29:30.951Z,-1.06
2023-05-03T22:31:57.825Z,-1.32
2023-05-03T22:34:24.529Z,-1.24
2023-05-03T22:36:52.545Z,-1.17
2023-05-03T22:39:19.108Z,-1.40
2023-05-03T22:41:45.906Z,-1.54
2023-05-03T22:44:12.652Z,-1.30
2023-05-03T22:46:39.847Z,-1.41
2023-05-03T22:49:07.405Z,-1.20
2023-05-03T22:51:35.499Z,-0.92
2023-05-03T22:54:02.467Z,-1.24
2023-05-03T22:56:30.248Z,-1.23
2023-05-03T22:58:58.305Z,-1.11
2023-05-03T23:01:26.593Z,-1.36
2023-05-03T23:03:54.419Z,-1.35
2023-05-03T23:06:21.208Z,-1.16
2023-05-03T23:08:47.811Z,-1.22
2023-05-03T23:11:15.780Z,-1.27
2023-05-03T23:13:43.580Z,-1.18
2023-05-03T23:16:11.801Z,-1.15
2023-05-03T23:18:38.531Z,-1.27
2023-05-03T23:21:05.603Z,-1.09
2023-05-03T23:23:32.217Z,-1.11
2023-05-03T23:25:58.911Z,-1.18
2023-05-03T23:28:26.203Z,-1.03
2023-05-03T23:30:54.467Z,-0.97
2023-05-03T23:33:21.454Z,-1.23
2023-05-03T23:35:48.839Z,-1.20
2023-05-03T23:38:15.863Z,-1.25
2023-05-03T23:40:42.554Z,-1.52
2023-05-03T23:43:10.308Z,-1.44
2023-05-03T23:45:38.229Z,-1.29
2023-05-03T23:48:06.357Z,-1.54
2023-05-03T23:50:32.987Z,-1.40
2023-05-03T23:53:01.056Z,-1.08
2023-05-03T23:55:27.831Z,-1.06
2023-05-03T23:57:55.765Z,-0.90
